Time;durP1;ratioP1;P1;durP2;ratioP2;P2;SDS_P1;SDS_P2;PMS_P1;PMS_P2;Temp;Humidity;BMP_temperature;BMP_pressure;BME280_temperature;BME280_humidity;BME280_pressure;Samples;Min_cycle;Max_cycle;Signal;HPM_P1;HPM_P2
2022/11/30 00:00:19;;;;;;;9.02;4.63;;;10.70;99.90;;;;;;5018781;28;20057;-74
2022/11/30 00:02:52;;;;;;;10.52;4.95;;;10.70;99.90;;;;;;5000056;28;20048;-73
2022/11/30 00:05:19;;;;;;;;;;;10.60;99.90;;;;;;5019105;28;20044;-75
2022/11/30 00:07:45;;;;;;;10.20;4.47;;;10.70;99.90;;;;;;5008592;28;19926;-75
2022/11/30 00:10:12;;;;;;;10.82;4.53;;;10.70;99.90;;;;;;5015555;28;20034;-73
2022/11/30 00:12:41;;;;;;;8.40;4.15;;;10.80;99.90;;;;;;5012260;28;20049;-75
2022/11/30 00:15:09;;;;;;;8.82;4.07;;;10.80;99.90;;;;;;5019535;28;20116;-74
2022/11/30 00:17:35;;;;;;;9.23;3.70;;;10.80;99.90;;;;;;5029867;28;20566;-75
2022/11/30 00:20:01;;;;;;;9.68;4.43;;;10.70;99.90;;;;;;5022972;28;20045;-73
2022/11/30 00:22:27;;;;;;;8.50;4.05;;;10.70;99.90;;;;;;5019025;28;20042;-73
2022/11/30 00:24:53;;;;;;;9.02;3.85;;;10.70;99.90;;;;;;5016005;28;20061;-73
2022/11/30 00:27:18;;;;;;;8.88;4.70;;;10.60;99.90;;;;;;5019916;28;20489;-74
2022/11/30 00:29:44;;;;;;;9.43;4.10;;;10.60;99.90;;;;;;5019289;28;20523;-73
2022/11/30 00:32:10;;;;;;;8.52;3.42;;;10.50;99.90;;;;;;5017398;28;20060;-74
2022/11/30 00:34:36;;;;;;;8.50;3.22;;;10.50;99.90;;;;;;5015602;28;20784;-73
2022/11/30 00:37:01;;;;;;;8.40;3.60;;;10.40;99.90;;;;;;5020011;28;20125;-73
2022/11/30 00:39:27;;;;;;;8.15;3.70;;;10.50;99.90;;;;;;5035138;28;20053;-74
2022/11/30 00:41:53;;;;;;;9.55;3.58;;;10.60;99.90;;;;;;5019890;28;20497;-74
2022/11/30 00:44:18;;;;;;;9.25;3.60;;;10.60;99.90;;;;;;5016397;28;20076;-73
2022/11/30 00:46:44;;;;;;;9.25;4.03;;;10.60;99.90;;;;;;5017257;28;20129;-73
2022/11/30 00:49:10;;;;;;;9.93;3.83;;;10.50;99.90;;;;;;5038235;28;20029;-74
2022/11/30 00:51:37;;;;;;;9.80;3.58;;;10.50;99.90;;;;;;5020914;28;20034;-73
2022/11/30 00:54:03;;;;;;;9.38;3.25;;;10.50;99.90;;;;;;5019370;28;20048;-74
2022/11/30 00:56:29;;;;;;;8.32;3.60;;;10.40;99.90;;;;;;5020148;28;20485;-73
2022/11/30 00:58:55;;;;;;;7.60;3.20;;;10.50;99.90;;;;;;5020311;28;20045;-73
2022/11/30 01:01:20;;;;;;;6.40;3.00;;;10.50;99.90;;;;;;5018402;28;20524;-73
2022/11/30 01:03:46;;;;;;;6.95;3.08;;;10.50;99.90;;;;;;5023270;28;20041;-74
2022/11/30 01:06:12;;;;;;;8.02;3.13;;;10.50;99.90;;;;;;5017309;28;20095;-73
2022/11/30 01:08:38;;;;;;;9.05;3.53;;;10.40;99.90;;;;;;5014790;28;20046;-73
2022/11/30 01:11:15;;;;;;;9.93;4.25;;;10.40;99.90;;;;;;5019142;28;20029;-73
2022/11/30 01:13:41;;;;;;;8.27;3.38;;;10.40;99.90;;;;;;5019676;28;20034;-74
2022/11/30 01:16:09;;;;;;;6.82;3.17;;;10.40;99.90;;;;;;5018035;28;20132;-74
2022/11/30 01:18:37;;;;;;;9.57;3.50;;;10.40;99.90;;;;;;5023544;28;20377;-74
2022/11/30 01:21:08;;;;;;;8.85;3.30;;;10.40;99.90;;;;;;5020348;28;20120;-73
2022/11/30 01:23:34;;;;;;;7.70;3.28;;;10.40;99.90;;;;;;5018711;28;20036;-74
2022/11/30 01:26:00;;;;;;;7.93;3.17;;;10.40;99.90;;;;;;5019605;28;20120;-74
2022/11/30 01:28:25;;;;;;;6.70;3.45;;;10.40;99.90;;;;;;5019345;28;20431;-73
2022/11/30 01:31:04;;;;;;;6.60;3.22;;;10.40;99.90;;;;;;5021840;28;20029;-74
2022/11/30 01:33:30;;;;;;;5.75;3.20;;;10.40;99.90;;;;;;5021537;28;20068;-74
2022/11/30 01:36:02;;;;;;;8.40;3.20;;;10.50;99.90;;;;;;5010003;28;20520;-74
2022/11/30 01:38:33;;;;;;;5.80;2.67;;;10.50;99.90;;;;;;5018891;28;20038;-73
2022/11/30 01:41:00;;;;;;;6.22;2.90;;;10.50;99.90;;;;;;5021761;28;20038;-74
2022/11/30 01:43:40;;;;;;;7.30;3.75;;;10.50;99.90;;;;;;5023373;28;20384;-74
2022/11/30 01:46:38;;;;;;;5.88;3.13;;;10.50;99.90;;;;;;5020694;28;20029;-73
2022/11/30 01:49:09;;;;;;;5.13;2.50;;;10.60;99.90;;;;;;5023509;28;20038;-73
2022/11/30 01:51:46;;;;;;;4.82;2.60;;;10.50;99.90;;;;;;5016026;28;20041;-73
2022/11/30 01:54:15;;;;;;;6.03;3.28;;;10.50;99.90;;;;;;5018146;28;20033;-74
2022/11/30 01:56:47;;;;;;;5.38;2.03;;;10.40;99.90;;;;;;5021822;28;20041;-74
2022/11/30 01:59:13;;;;;;;6.15;2.53;;;10.50;99.90;;;;;;5018104;28;20089;-74
2022/11/30 02:01:40;;;;;;;5.43;2.40;;;10.50;99.90;;;;;;5022457;28;20046;-73
2022/11/30 02:04:14;;;;;;;4.80;1.92;;;10.60;99.90;;;;;;5021557;28;20061;-74
2022/11/30 02:06:40;;;;;;;5.72;2.20;;;10.70;99.90;;;;;;5021650;28;20489;-73
2022/11/30 02:09:06;;;;;;;5.53;2.13;;;10.60;99.90;;;;;;5019966;28;20054;-73
2022/11/30 02:11:33;;;;;;;4.50;2.00;;;10.70;99.90;;;;;;5016853;28;20037;-73
2022/11/30 02:14:20;;;;;;;6.15;2.20;;;10.70;99.90;;;;;;5031022;28;20044;-72
2022/11/30 02:17:00;;;;;;;4.32;1.92;;;10.70;99.90;;;;;;5019004;28;20497;-74
2022/11/30 02:19:54;;;;;;;5.13;2.25;;;10.70;99.90;;;;;;5020343;28;20477;-73
2022/11/30 02:22:52;;;;;;;5.47;2.45;;;10.60;99.90;;;;;;5023657;28;20714;-73
2022/11/30 02:25:42;;;;;;;4.13;1.95;;;10.60;99.90;;;;;;4989036;28;20073;-73
2022/11/30 02:28:31;;;;;;;4.13;1.85;;;10.60;99.90;;;;;;5023627;28;20026;-73
2022/11/30 02:30:59;;;;;;;4.47;1.70;;;10.60;99.90;;;;;;5023200;28;20041;-73
2022/11/30 02:33:28;;;;;;;4.80;1.85;;;10.70;99.90;;;;;;5020688;28;20117;-74
2022/11/30 02:35:58;;;;;;;4.18;1.80;;;10.70;99.90;;;;;;4997077;28;20051;-74
2022/11/30 02:38:26;;;;;;;4.82;1.85;;;10.60;99.90;;;;;;5020483;28;20037;-72
2022/11/30 02:40:53;;;;;;;9.18;2.00;;;10.60;99.90;;;;;;5020935;28;20045;-73
2022/11/30 02:43:22;;;;;;;4.45;2.10;;;10.60;99.90;;;;;;5023430;28;20496;-74
2022/11/30 02:46:13;;;;;;;4.68;1.85;;;10.60;99.90;;;;;;5022997;28;20064;-73
2022/11/30 02:49:25;;;;;;;4.38;1.92;;;10.50;99.90;;;;;;5018722;28;20375;-73
2022/11/30 02:51:53;;;;;;;3.28;1.60;;;10.50;99.90;;;;;;5005704;28;20632;-73
2022/11/30 02:54:20;;;;;;;4.43;1.90;;;10.50;99.90;;;;;;5012502;28;20056;-74
2022/11/30 02:56:46;;;;;;;4.28;1.80;;;10.50;99.90;;;;;;5012633;28;20042;-73
2022/11/30 02:59:11;;;;;;;4.20;1.88;;;10.50;99.90;;;;;;5037536;28;20041;-73
2022/11/30 03:01:41;;;;;;;4.35;1.88;;;10.40;99.90;;;;;;5021617;28;20048;-74
2022/11/30 03:04:07;;;;;;;5.57;2.10;;;10.50;99.90;;;;;;5027432;28;20631;-74
2022/11/30 03:06:34;;;;;;;5.65;2.33;;;10.50;99.90;;;;;;5022188;28;20037;-74
2022/11/30 03:09:00;;;;;;;4.68;2.00;;;10.60;99.90;;;;;;5017266;28;20065;-73
2022/11/30 03:11:25;;;;;;;4.80;2.50;;;10.70;99.90;;;;;;5023596;28;20346;-73
2022/11/30 03:13:51;;;;;;;7.88;2.03;;;10.60;99.90;;;;;;5026434;28;20065;-74
2022/11/30 03:16:17;;;;;;;3.83;1.92;;;10.60;99.90;;;;;;5023599;28;20041;-74
2022/11/30 03:18:43;;;;;;;4.07;1.88;;;10.50;99.90;;;;;;5020472;28;20038;-72
2022/11/30 03:21:11;;;;;;;3.80;1.63;;;10.40;99.90;;;;;;5020259;28;20026;-74
2022/11/30 03:23:37;;;;;;;4.88;2.17;;;10.20;99.90;;;;;;5026120;28;20029;-73
2022/11/30 03:26:05;;;;;;;5.32;2.03;;;10.10;99.90;;;;;;5023357;28;20049;-74
2022/11/30 03:28:31;;;;;;;4.07;1.60;;;10.20;99.90;;;;;;5020685;28;20037;-73
2022/11/30 03:30:57;;;;;;;4.03;2.03;;;10.10;99.90;;;;;;5019588;28;20041;-73
2022/11/30 03:33:24;;;;;;;4.63;2.00;;;10.00;99.90;;;;;;5022725;28;20583;-73
2022/11/30 03:36:02;;;;;;;4.10;1.73;;;10.00;99.90;;;;;;5022565;28;20030;-73
2022/11/30 03:38:29;;;;;;;5.03;2.08;;;9.90;99.90;;;;;;5018879;28;20118;-73
2022/11/30 03:41:03;;;;;;;5.00;2.13;;;10.00;99.90;;;;;;5019067;28;20044;-74
2022/11/30 03:43:29;;;;;;;5.25;1.90;;;10.10;99.90;;;;;;5035070;28;20500;-73
2022/11/30 03:45:54;;;;;;;5.20;2.30;;;10.10;99.90;;;;;;5021697;28;20046;-73
2022/11/30 03:48:21;;;;;;;6.05;2.20;;;10.10;99.90;;;;;;5010745;28;20041;-73
2022/11/30 03:50:48;;;;;;;4.28;1.92;;;10.20;99.90;;;;;;5013721;28;20068;-74
2022/11/30 03:53:19;;;;;;;6.43;2.13;;;10.10;99.90;;;;;;5019175;28;20052;-74
2022/11/30 03:55:45;;;;;;;5.32;1.98;;;10.10;99.90;;;;;;5024017;28;20038;-73
2022/11/30 03:58:12;;;;;;;4.88;2.10;;;10.00;99.90;;;;;;5018227;28;20052;-73
2022/11/30 04:00:38;;;;;;;5.47;1.90;;;10.00;99.90;;;;;;5004908;28;20037;-73
2022/11/30 04:03:04;;;;;;;6.65;2.90;;;9.90;99.90;;;;;;5014824;28;20495;-73
2022/11/30 04:05:30;;;;;;;5.32;2.17;;;9.90;99.90;;;;;;5019241;28;20037;-73
2022/11/30 04:07:56;;;;;;;4.32;2.03;;;9.90;99.90;;;;;;5017587;28;20038;-72
2022/11/30 04:10:22;;;;;;;5.32;2.40;;;9.90;99.90;;;;;;5008296;28;20037;-74
2022/11/30 04:12:48;;;;;;;6.00;2.63;;;9.90;99.90;;;;;;4994250;28;20051;-74
2022/11/30 04:15:14;;;;;;;6.78;3.08;;;9.80;99.90;;;;;;5024618;28;20040;-74
2022/11/30 04:17:40;;;;;;;6.68;2.63;;;9.80;99.90;;;;;;5017847;28;20038;-73
2022/11/30 04:20:06;;;;;;;5.57;2.53;;;9.80;99.90;;;;;;5020596;28;20128;-73
2022/11/30 04:22:32;;;;;;;6.15;2.60;;;9.80;99.90;;;;;;5019503;28;20041;-73
2022/11/30 04:24:59;;;;;;;6.25;2.33;;;9.80;99.90;;;;;;5028155;28;20040;-73
2022/11/30 04:27:27;;;;;;;7.10;2.58;;;9.70;99.90;;;;;;5018328;28;20045;-74
2022/11/30 04:29:53;;;;;;;6.80;2.67;;;9.60;99.90;;;;;;5024235;28;20049;-73
2022/11/30 04:32:18;;;;;;;4.93;2.40;;;9.60;99.90;;;;;;5018721;28;20045;-73
2022/11/30 04:34:44;;;;;;;5.55;2.75;;;9.60;99.90;;;;;;5036395;28;20073;-74
2022/11/30 04:37:10;;;;;;;5.53;2.70;;;9.60;99.90;;;;;;5022288;28;20061;-73
2022/11/30 04:39:36;;;;;;;6.43;2.83;;;9.60;99.90;;;;;;5021818;28;20096;-73
2022/11/30 04:42:02;;;;;;;6.57;3.00;;;9.70;99.90;;;;;;5020319;28;20045;-74
2022/11/30 04:44:27;;;;;;;8.40;3.63;;;9.80;99.90;;;;;;5025006;28;20064;-73
2022/11/30 04:46:53;;;;;;;6.70;3.22;;;9.90;99.90;;;;;;5023012;28;20042;-74
2022/11/30 04:49:19;;;;;;;6.93;3.08;;;9.90;99.90;;;;;;5021451;28;20156;-73
2022/11/30 04:51:45;;;;;;;6.13;3.13;;;9.90;99.90;;;;;;5021847;28;20599;-73
2022/11/30 04:54:11;;;;;;;6.78;3.00;;;10.00;99.90;;;;;;5034068;28;20623;-74
2022/11/30 04:56:36;;;;;;;7.82;3.45;;;10.00;99.90;;;;;;5025434;28;20041;-73
2022/11/30 04:59:02;;;;;;;6.18;3.38;;;10.00;99.90;;;;;;5024262;28;20030;-73
2022/11/30 05:01:28;;;;;;;6.60;3.40;;;9.90;99.90;;;;;;5020580;28;20299;-74
2022/11/30 05:03:55;;;;;;;6.85;3.58;;;9.90;99.90;;;;;;5022511;28;20396;-74
2022/11/30 05:06:21;;;;;;;;;;;9.80;99.90;;;;;;5023961;28;20601;-73
2022/11/30 05:08:47;;;;;;;6.43;2.92;;;9.90;99.90;;;;;;5025686;28;19927;-73
2022/11/30 05:11:13;;;;;;;7.40;3.25;;;9.80;99.90;;;;;;5019414;28;20065;-74
2022/11/30 05:13:39;;;;;;;7.65;3.75;;;9.80;99.90;;;;;;5019810;28;20132;-74
2022/11/30 05:16:05;;;;;;;7.75;3.03;;;9.70;99.90;;;;;;5021503;28;20026;-73
2022/11/30 05:18:32;;;;;;;9.48;4.03;;;9.70;99.90;;;;;;5024917;28;20038;-73
2022/11/30 05:20:58;;;;;;;7.88;3.90;;;9.80;99.90;;;;;;5010308;28;20041;-73
2022/11/30 05:23:24;;;;;;;10.52;5.22;;;9.80;99.90;;;;;;5019702;28;20145;-72
2022/11/30 05:25:50;;;;;;;10.52;4.10;;;9.90;99.90;;;;;;5020890;28;20030;-73
2022/11/30 05:28:16;;;;;;;8.75;4.15;;;9.90;99.90;;;;;;5025465;28;20056;-73
2022/11/30 05:30:43;;;;;;;8.88;3.78;;;10.00;99.90;;;;;;5019624;28;20037;-73
2022/11/30 05:33:09;;;;;;;7.78;3.70;;;10.10;99.90;;;;;;5022704;28;20037;-74
2022/11/30 05:35:36;;;;;;;7.35;4.43;;;10.20;99.90;;;;;;5026501;28;20436;-73
2022/11/30 05:38:02;;;;;;;7.10;3.53;;;10.20;99.90;;;;;;5022158;28;20069;-74
2022/11/30 05:40:29;;;;;;;6.85;3.25;;;10.30;99.90;;;;;;5015941;28;20041;-74
2022/11/30 05:42:56;;;;;;;8.48;3.70;;;10.20;99.90;;;;;;5012200;28;20055;-74
2022/11/30 05:45:23;;;;;;;7.57;3.40;;;10.20;99.90;;;;;;5019368;28;20089;-73
2022/11/30 05:47:48;;;;;;;7.45;3.20;;;10.20;99.90;;;;;;5016346;28;20091;-73
2022/11/30 05:50:14;;;;;;;7.90;3.85;;;10.20;99.90;;;;;;5021182;28;20033;-73
2022/11/30 05:52:40;;;;;;;6.70;3.10;;;10.20;99.90;;;;;;5018426;28;20133;-73
2022/11/30 05:55:06;;;;;;;8.38;3.47;;;10.20;99.90;;;;;;5022520;28;20029;-74
2022/11/30 05:57:38;;;;;;;9.32;3.47;;;10.20;99.90;;;;;;5019731;28;20128;-73
2022/11/30 06:00:06;;;;;;;6.72;3.38;;;10.20;99.90;;;;;;5021751;28;20049;-75
2022/11/30 06:02:32;;;;;;;5.88;2.97;;;10.20;99.90;;;;;;5018495;28;20029;-73
2022/11/30 06:04:58;;;;;;;6.25;3.40;;;10.10;99.90;;;;;;5025973;28;20045;-74
2022/11/30 06:07:24;;;;;;;7.10;3.22;;;10.10;99.90;;;;;;5018806;28;20025;-73
2022/11/30 06:09:50;;;;;;;7.45;3.70;;;10.00;99.90;;;;;;5022412;28;20046;-73
2022/11/30 06:12:16;;;;;;;13.05;4.25;;;10.00;99.90;;;;;;5017573;28;20081;-75
2022/11/30 06:14:41;;;;;;;8.55;3.92;;;10.10;99.90;;;;;;5018483;28;20618;-73
2022/11/30 06:17:07;;;;;;;8.93;4.20;;;10.10;99.90;;;;;;5014302;28;20033;-73
2022/11/30 06:19:33;;;;;;;7.75;4.30;;;10.10;99.90;;;;;;5017615;28;20474;-74
2022/11/30 06:21:58;;;;;;;10.07;4.80;;;10.20;99.90;;;;;;5025975;28;20041;-74
2022/11/30 06:24:24;;;;;;;7.47;4.03;;;10.30;99.90;;;;;;5020572;28;20038;-74
2022/11/30 06:26:50;;;;;;;9.73;4.63;;;10.30;99.90;;;;;;5010777;28;20045;-73
2022/11/30 06:29:16;;;;;;;8.50;4.18;;;10.30;99.90;;;;;;5020144;28;20041;-74
2022/11/30 06:31:41;;;;;;;9.75;4.20;;;10.40;99.90;;;;;;5018724;28;20153;-74
2022/11/30 06:34:07;;;;;;;8.70;4.57;;;10.40;99.90;;;;;;5021088;28;20485;-74
2022/11/30 06:36:33;;;;;;;8.57;4.78;;;10.40;99.90;;;;;;5019425;28;20579;-73
2022/11/30 06:38:59;;;;;;;10.00;4.40;;;10.40;99.90;;;;;;5022323;28;20038;-73
2022/11/30 06:41:25;;;;;;;9.13;4.72;;;10.30;99.90;;;;;;5019778;28;20036;-73
2022/11/30 06:43:51;;;;;;;10.15;5.28;;;10.30;99.90;;;;;;5023897;28;20038;-74
2022/11/30 06:46:17;;;;;;;9.18;4.80;;;10.20;99.90;;;;;;5021752;28;20047;-75
2022/11/30 06:48:48;;;;;;;10.10;4.78;;;10.20;99.90;;;;;;5007034;28;20025;-74
2022/11/30 06:51:14;;;;;;;9.45;5.10;;;10.10;99.90;;;;;;5022071;28;20034;-73
2022/11/30 06:53:43;;;;;;;10.20;4.97;;;10.00;99.90;;;;;;5007769;28;20041;-75
2022/11/30 06:56:09;;;;;;;9.80;4.60;;;10.00;99.90;;;;;;5032047;28;20083;-74
2022/11/30 06:58:35;;;;;;;11.73;4.50;;;9.90;99.90;;;;;;5019796;28;20041;-73
2022/11/30 07:01:04;;;;;;;7.95;3.80;;;9.80;99.90;;;;;;5023071;28;20141;-73
2022/11/30 07:03:30;;;;;;;9.38;4.28;;;9.80;99.90;;;;;;5021194;28;20407;-74
2022/11/30 07:05:56;;;;;;;8.63;4.38;;;9.70;99.90;;;;;;5023113;28;20160;-74
2022/11/30 07:08:21;;;;;;;13.55;4.50;;;9.70;99.90;;;;;;5019656;28;20045;-73
2022/11/30 07:10:47;;;;;;;10.18;4.82;;;9.70;99.90;;;;;;5026918;28;20029;-74
2022/11/30 07:13:16;;;;;;;9.95;4.10;;;9.70;99.90;;;;;;5020422;28;20037;-74
2022/11/30 07:15:42;;;;;;;7.88;3.75;;;9.70;99.90;;;;;;5020032;28;20044;-73
2022/11/30 07:18:10;;;;;;;8.48;3.80;;;9.70;99.90;;;;;;5021045;28;20100;-73
2022/11/30 07:20:38;;;;;;;8.95;3.67;;;9.80;99.90;;;;;;5033930;28;20053;-73
2022/11/30 07:26:08;;;;;;;8.15;3.78;;;9.80;99.90;;;;;;5021305;28;20086;-73
2022/11/30 07:28:42;;;;;;;8.50;4.05;;;9.90;99.90;;;;;;5017018;28;20026;-74
2022/11/30 07:31:24;;;;;;;9.55;3.60;;;10.00;99.90;;;;;;5018706;28;20033;-74
2022/11/30 07:33:50;;;;;;;10.52;3.67;;;10.20;99.90;;;;;;5019763;28;20065;-73
2022/11/30 07:36:18;;;;;;;7.72;3.45;;;10.30;99.90;;;;;;5021735;28;20496;-74
2022/11/30 07:38:44;;;;;;;8.52;3.45;;;10.40;99.90;;;;;;5016651;28;20042;-73
2022/11/30 07:41:10;;;;;;;9.65;3.47;;;10.60;99.90;;;;;;5001277;28;20038;-73
2022/11/30 07:43:36;;;;;;;9.23;3.70;;;10.80;99.90;;;;;;5006706;28;20033;-74
2022/11/30 07:46:03;;;;;;;13.35;4.30;;;10.90;99.90;;;;;;5003406;28;20123;-73
2022/11/30 07:48:29;;;;;;;10.05;4.20;;;11.00;99.90;;;;;;5022694;28;20049;-74
2022/11/30 07:51:07;;;;;;;10.68;5.15;;;11.10;99.90;;;;;;5014535;28;20400;-73
2022/11/30 07:53:35;;;;;;;10.32;4.28;;;11.20;99.90;;;;;;5020316;28;20033;-73
2022/11/30 07:56:02;;;;;;;11.45;4.10;;;11.40;99.90;;;;;;5015551;28;20038;-74
2022/11/30 07:58:29;;;;;;;13.93;4.00;;;11.60;99.90;;;;;;5018193;28;20096;-74
2022/11/30 08:01:03;;;;;;;10.55;4.60;;;11.70;99.90;;;;;;5022354;28;20117;-73
2022/11/30 08:03:29;;;;;;;9.27;4.25;;;11.80;99.90;;;;;;5017269;28;20029;-73
2022/11/30 08:06:00;;;;;;;9.20;4.22;;;11.80;99.90;;;;;;5023791;28;20037;-74
2022/11/30 08:08:29;;;;;;;7.65;4.13;;;12.30;99.90;;;;;;5012934;28;20458;-74
2022/11/30 08:10:59;;;;;;;11.48;4.25;;;12.40;99.90;;;;;;5022799;28;20034;-74
2022/11/30 08:13:24;;;;;;;9.45;4.13;;;12.30;99.90;;;;;;5017437;28;20120;-73
2022/11/30 08:15:51;;;;;;;9.30;3.75;;;12.90;99.90;;;;;;5021463;28;20128;-74
2022/11/30 08:18:16;;;;;;;10.45;4.13;;;13.70;99.90;;;;;;5024391;28;20069;-73
2022/11/30 08:20:42;;;;;;;7.47;3.80;;;14.70;99.90;;;;;;5017552;28;20092;-75
2022/11/30 08:23:08;;;;;;;12.15;4.15;;;15.30;99.90;;;;;;5032797;28;20045;-74
2022/11/30 08:25:34;;;;;;;11.30;4.30;;;15.80;99.90;;;;;;5018432;28;20029;-75
2022/11/30 08:28:03;;;;;;;8.85;4.35;;;16.30;99.90;;;;;;5013664;28;20092;-74
2022/11/30 08:30:29;;;;;;;7.25;3.63;;;16.60;99.90;;;;;;5020972;28;20038;-74
2022/11/30 08:32:56;;;;;;;12.52;4.13;;;16.70;99.90;;;;;;5012811;28;20037;-73
2022/11/30 08:35:22;;;;;;;6.85;3.97;;;16.90;99.90;;;;;;5015995;28;20041;-74
2022/11/30 08:37:48;;;;;;;6.93;4.15;;;16.80;99.90;;;;;;5024357;28;20413;-75
2022/11/30 08:40:14;;;;;;;7.60;3.72;;;16.80;99.90;;;;;;5019116;28;20037;-73
2022/11/30 08:42:39;;;;;;;8.75;4.18;;;16.90;99.90;;;;;;5023455;28;20040;-74
2022/11/30 08:45:06;;;;;;;8.80;3.70;;;15.70;99.90;;;;;;5017834;28;20100;-75
2022/11/30 08:47:31;;;;;;;8.25;4.30;;;14.80;99.90;;;;;;5017186;28;20501;-74
2022/11/30 08:49:57;;;;;;;8.25;4.43;;;14.20;99.90;;;;;;5020356;28;20121;-74
2022/11/30 08:52:23;;;;;;;8.20;4.10;;;13.80;99.90;;;;;;5017959;28;20041;-74
2022/11/30 08:54:49;;;;;;;8.93;4.90;;;13.50;99.90;;;;;;5019632;28;20095;-74
2022/11/30 08:57:17;;;;;;;9.35;4.00;;;13.50;99.90;;;;;;5002060;28;20033;-74
2022/11/30 08:59:43;;;;;;;8.82;4.10;;;13.40;99.90;;;;;;5017375;28;20049;-74
2022/11/30 09:02:18;;;;;;;8.20;4.22;;;13.50;99.90;;;;;;5017643;28;20086;-74
2022/11/30 09:04:46;;;;;;;9.15;3.90;;;13.50;99.90;;;;;;5021733;28;20500;-75
2022/11/30 09:07:12;;;;;;;7.68;3.70;;;13.40;99.90;;;;;;5017458;28;20131;-74
2022/11/30 09:09:38;;;;;;;8.18;4.00;;;13.20;99.90;;;;;;5017884;28;20136;-74
2022/11/30 09:12:04;;;;;;;9.23;4.40;;;13.00;99.90;;;;;;5005836;28;20556;-73
2022/11/30 09:14:30;;;;;;;8.52;3.92;;;13.00;99.90;;;;;;5014133;28;20042;-73
2022/11/30 09:16:56;;;;;;;9.48;3.88;;;13.10;99.90;;;;;;5022358;28;20130;-73
2022/11/30 09:19:24;;;;;;;8.93;3.70;;;13.20;99.90;;;;;;5004843;28;20041;-74
2022/11/30 09:21:50;;;;;;;8.18;4.43;;;13.20;99.90;;;;;;5013566;28;20414;-75
2022/11/30 09:24:16;;;;;;;11.75;3.65;;;13.20;99.90;;;;;;5023518;28;20033;-74
2022/11/30 09:26:41;;;;;;;10.45;4.75;;;13.20;99.90;;;;;;5020316;28;20422;-76
2022/11/30 09:29:07;;;;;;;10.73;4.07;;;13.70;99.90;;;;;;5000629;28;20552;-74
2022/11/30 09:31:33;;;;;;;8.27;3.88;;;14.40;99.90;;;;;;5017438;28;20496;-74
2022/11/30 09:33:59;;;;;;;8.07;3.70;;;14.30;99.90;;;;;;5016641;28;20544;-72
2022/11/30 09:36:26;;;;;;;12.65;5.22;;;14.30;99.90;;;;;;5016180;28;20044;-74
2022/11/30 09:38:53;;;;;;;8.80;4.57;;;14.30;99.90;;;;;;5017758;28;20455;-75
2022/11/30 09:41:37;;;;;;;10.07;3.50;;;14.10;99.90;;;;;;5013348;28;20037;-75
2022/11/30 09:44:25;;;;;;;6.63;3.30;;;14.50;99.90;;;;;;5018165;28;20116;-74
2022/11/30 09:47:03;;;;;;;6.72;2.40;;;14.60;99.90;;;;;;5031366;28;20025;-74
2022/11/30 09:49:33;;;;;;;10.80;3.40;;;14.90;99.90;;;;;;5012313;28;20041;-74
2022/11/30 09:52:03;;;;;;;7.63;3.78;;;15.10;99.90;;;;;;5015788;28;20041;-74
2022/11/30 09:54:38;;;;;;;12.20;3.55;;;15.20;99.90;;;;;;5010381;28;20121;-74
2022/11/30 09:57:40;;;;;;;8.43;3.75;;;15.40;99.90;;;;;;5015786;28;20497;-74
2022/11/30 10:00:16;;;;;;;10.38;3.50;;;15.90;99.90;;;;;;4985306;28;20040;-75
2022/11/30 10:02:42;;;;;;;10.50;4.78;;;15.50;99.90;;;;;;5012910;28;20395;-73
2022/11/30 10:05:18;;;;;;;9.68;4.15;;;15.10;99.90;;;;;;5016549;28;20040;-74
2022/11/30 10:08:02;;;;;;;11.00;4.15;;;14.70;99.90;;;;;;4999092;28;20128;-75
2022/11/30 10:10:42;;;;;;;9.68;4.18;;;15.10;99.90;;;;;;5011025;28;20030;-74
2022/11/30 10:13:41;;;;;;;8.48;3.50;;;15.50;99.90;;;;;;5018509;28;20037;-75
2022/11/30 10:16:59;;;;;;;7.70;3.92;;;15.10;99.90;;;;;;5013972;28;20037;-74
2022/11/30 10:20:02;;;;;;;7.55;3.75;;;15.60;99.90;;;;;;5006012;28;20047;-74
2022/11/30 10:22:59;;;;;;;10.32;3.90;;;15.90;99.90;;;;;;5014950;28;20033;-74
2022/11/30 10:25:32;;;;;;;8.82;4.13;;;16.00;99.90;;;;;;5014574;28;20037;-75
2022/11/30 10:28:13;;;;;;;9.43;4.63;;;16.30;99.90;;;;;;5012090;28;20811;-74
2022/11/30 10:30:39;;;;;;;9.60;4.43;;;16.60;99.90;;;;;;5018430;28;20420;-74
2022/11/30 10:33:33;;;;;;;9.93;4.68;;;16.40;99.90;;;;;;5018796;28;20042;-74
2022/11/30 10:36:07;;;;;;;12.82;4.25;;;16.30;99.90;;;;;;5011869;28;20041;-75
2022/11/30 10:38:38;;;;;;;8.68;3.47;;;16.40;99.90;;;;;;5020977;28;20041;-75
2022/11/30 10:41:29;;;;;;;8.20;3.92;;;16.50;99.90;;;;;;5018813;28;20053;-73
2022/11/30 10:44:18;;;;;;;11.13;3.97;;;15.50;99.90;;;;;;5015937;28;20037;-73
2022/11/30 10:47:19;;;;;;;8.63;3.92;;;15.40;99.90;;;;;;5003798;28;20041;-75
2022/11/30 10:49:48;;;;;;;7.72;3.67;;;15.40;99.90;;;;;;5006724;28;20050;-74
2022/11/30 10:52:21;;;;;;;8.82;3.78;;;16.20;99.90;;;;;;5031005;28;20144;-75
2022/11/30 10:54:49;;;;;;;8.82;3.55;;;16.60;99.90;;;;;;5033919;28;20069;-74
2022/11/30 10:57:15;;;;;;;7.53;2.80;;;17.70;99.90;;;;;;5017551;28;20123;-74
2022/11/30 10:59:51;;;;;;;7.07;3.05;;;16.20;99.90;;;;;;5020117;28;20158;-73
2022/11/30 11:02:44;;;;;;;13.32;3.60;;;15.80;99.90;;;;;;5016480;28;20121;-74
2022/11/30 11:05:21;;;;;;;10.48;3.70;;;15.30;99.90;;;;;;5016625;28;20045;-73
2022/11/30 11:07:56;;;;;;;10.00;3.20;;;15.00;99.90;;;;;;5018340;28;20091;-73
2022/11/30 11:10:34;;;;;;;11.48;5.28;;;15.00;99.90;;;;;;5019271;28;20049;-75
2022/11/30 11:13:00;;;;;;;7.20;2.80;;;15.40;99.90;;;;;;5020306;28;20124;-74
2022/11/30 11:15:36;;;;;;;5.88;2.20;;;16.10;99.90;;;;;;5017930;28;20124;-75
2022/11/30 11:18:17;;;;;;;7.85;3.00;;;17.70;99.90;;;;;;5024312;28;20128;-74
2022/11/30 11:20:43;;;;;;;7.07;2.33;;;18.60;99.90;;;;;;5012892;28;20453;-75
2022/11/30 11:23:26;;;;;;;;;;;18.70;99.90;;;;;;5018808;28;20037;-74
2022/11/30 11:25:52;;;;;;;7.43;2.97;;;17.90;99.90;;;;;;5013782;28;19919;-74
2022/11/30 11:28:20;;;;;;;8.60;2.92;;;19.10;99.90;;;;;;5012594;28;20057;-74
2022/11/30 11:30:47;;;;;;;6.53;2.90;;;19.80;98.90;;;;;;5021301;28;20103;-74
2022/11/30 11:33:13;;;;;;;6.07;2.33;;;19.40;99.10;;;;;;5023150;28;20052;-74
2022/11/30 11:35:42;;;;;;;10.65;3.13;;;20.70;98.60;;;;;;5017607;28;20041;-74
2022/11/30 11:38:24;;;;;;;7.20;2.55;;;21.10;97.30;;;;;;5015398;28;20145;-75
2022/11/30 11:41:01;;;;;;;9.35;2.55;;;19.40;98.10;;;;;;5013982;28;20129;-74
2022/11/30 11:43:31;;;;;;;8.32;2.28;;;20.40;98.40;;;;;;5015952;28;20111;-76
2022/11/30 11:46:01;;;;;;;7.97;2.90;;;19.90;98.60;;;;;;5019523;28;20652;-75
2022/11/30 11:48:32;;;;;;;8.90;1.67;;;19.00;98.80;;;;;;5020370;28;20037;-75
2022/11/30 11:51:03;;;;;;;4.78;1.70;;;18.60;99.90;;;;;;5016807;28;20045;-75
2022/11/30 11:53:54;;;;;;;6.63;2.15;;;17.90;99.90;;;;;;5015109;28;20037;-74
2022/11/30 11:56:26;;;;;;;7.03;2.10;;;18.70;99.90;;;;;;5007015;28;20038;-74
2022/11/30 11:58:59;;;;;;;5.65;2.38;;;19.30;99.90;;;;;;5016622;28;20505;-75
2022/11/30 12:01:43;;;;;;;8.27;2.92;;;19.80;99.40;;;;;;5022343;28;20041;-76
2022/11/30 12:04:35;;;;;;;8.30;2.17;;;18.80;98.80;;;;;;5016863;28;20096;-76
2022/11/30 12:07:09;;;;;;;7.30;2.58;;;18.50;99.40;;;;;;5020358;28;20034;-74
2022/11/30 12:09:42;;;;;;;8.18;3.15;;;19.30;99.20;;;;;;5018623;28;20038;-75
2022/11/30 12:12:12;;;;;;;7.32;2.22;;;19.60;99.30;;;;;;5015983;28;20030;-74
2022/11/30 12:14:38;;;;;;;6.60;2.15;;;18.00;99.70;;;;;;5009514;28;20196;-74
2022/11/30 12:17:22;;;;;;;7.18;2.25;;;18.10;99.90;;;;;;5016117;28;20815;-74
2022/11/30 12:20:15;;;;;;;7.28;2.00;;;19.20;99.40;;;;;;5016951;28;20030;-74
2022/11/30 12:23:07;;;;;;;7.97;2.05;;;19.40;98.70;;;;;;5013588;28;20049;-75
2022/11/30 12:26:00;;;;;;;6.32;1.98;;;19.10;99.70;;;;;;5018185;28;20057;-75
2022/11/30 12:28:41;;;;;;;5.85;1.85;;;20.10;98.20;;;;;;5010813;28;20477;-76
2022/11/30 12:31:17;;;;;;;6.78;2.05;;;19.80;97.60;;;;;;5018351;28;20173;-75
2022/11/30 12:34:12;;;;;;;5.97;2.03;;;19.50;98.00;;;;;;5015781;28;20037;-75
2022/11/30 12:36:54;;;;;;;7.03;2.10;;;19.50;98.40;;;;;;5017756;28;20045;-75
2022/11/30 12:39:40;;;;;;;5.93;1.98;;;19.60;98.10;;;;;;5019745;28;20129;-74
2022/11/30 12:42:25;;;;;;;7.75;2.03;;;20.50;96.80;;;;;;5022066;28;20075;-75
2022/11/30 12:45:16;;;;;;;11.75;3.42;;;19.90;97.60;;;;;;5022073;28;20065;-73
2022/11/30 12:48:01;;;;;;;5.97;2.00;;;20.10;97.40;;;;;;5022653;28;20075;-74
2022/11/30 12:50:54;;;;;;;6.60;1.77;;;19.70;98.00;;;;;;5025575;28;20523;-75
2022/11/30 12:54:08;;;;;;;8.43;2.65;;;18.60;99.00;;;;;;5023220;28;20497;-74
2022/11/30 12:56:43;;;;;;;7.53;1.98;;;18.70;98.80;;;;;;5017890;28;20033;-75
2022/11/30 12:59:26;;;;;;;7.65;2.65;;;19.40;98.70;;;;;;5021681;28;20037;-74
2022/11/30 13:02:21;;;;;;;6.78;2.28;;;19.00;98.60;;;;;;5020614;28;20068;-75
2022/11/30 13:04:57;;;;;;;7.47;3.10;;;19.90;97.70;;;;;;5021952;28;20429;-75
2022/11/30 13:07:31;;;;;;;5.82;2.20;;;18.50;99.30;;;;;;5022216;28;20550;-76
2022/11/30 13:10:12;;;;;;;6.38;2.70;;;18.50;98.80;;;;;;5016779;28;20159;-74